Time;durP1;ratioP1;P1;durP2;ratioP2;P2;SDS_P1;SDS_P2;PMS_P1;PMS_P2;Temp;Humidity;BMP_temperature;BMP_pressure;BME280_temperature;BME280_humidity;BME280_pressure;Samples;Min_cycle;Max_cycle;Signal;HPM_P1;HPM_P2
2023/09/12 00:01:26;;;;;;;13.63;7.00;;;19.00;99.90;;;;;;4954042;28;20081;-68
2023/09/12 00:03:51;;;;;;;15.48;7.05;;;19.00;99.90;;;;;;4991190;28;20042;-68
2023/09/12 00:06:17;;;;;;;16.58;6.60;;;18.90;99.90;;;;;;4970605;28;20066;-69
2023/09/12 00:08:43;;;;;;;14.98;7.05;;;18.90;99.90;;;;;;4971128;28;20043;-69
2023/09/12 00:11:11;;;;;;;17.55;7.72;;;18.90;99.90;;;;;;5038247;28;20043;-69
2023/09/12 00:13:41;;;;;;;14.85;6.60;;;18.90;99.90;;;;;;5020893;28;20103;-69
2023/09/12 00:16:09;;;;;;;13.32;6.88;;;18.90;99.90;;;;;;5038146;28;20501;-69
2023/09/12 00:18:35;;;;;;;17.55;7.40;;;18.90;99.90;;;;;;5021562;28;20407;-70
2023/09/12 00:21:01;;;;;;;14.73;6.63;;;18.90;99.90;;;;;;4969999;28;20057;-69
2023/09/12 00:23:27;;;;;;;14.95;7.13;;;18.90;99.90;;;;;;5037624;28;20038;-69
2023/09/12 00:25:53;;;;;;;14.57;6.20;;;18.90;99.90;;;;;;5034669;28;20090;-70
2023/09/12 00:28:20;;;;;;;15.50;7.07;;;18.80;99.90;;;;;;5036844;28;20070;-69
2023/09/12 00:30:46;;;;;;;15.13;6.45;;;18.80;99.90;;;;;;5037540;28;20133;-69
2023/09/12 00:33:12;;;;;;;14.98;6.32;;;18.80;99.90;;;;;;5037548;28;20123;-70
2023/09/12 00:35:37;;;;;;;12.93;5.72;;;18.80;99.90;;;;;;5037614;28;20134;-69
2023/09/12 00:38:03;;;;;;;18.00;4.78;;;18.80;99.90;;;;;;5037942;28;20047;-70
2023/09/12 00:40:29;;;;;;;9.15;3.30;;;18.70;99.90;;;;;;5036735;28;20058;-69
2023/09/12 00:42:55;;;;;;;13.02;4.93;;;18.70;99.90;;;;;;5037352;28;20059;-69
2023/09/12 00:45:21;;;;;;;14.68;5.78;;;18.60;99.90;;;;;;4975132;28;20039;-70
2023/09/12 00:47:49;;;;;;;13.23;6.00;;;18.60;99.90;;;;;;5053852;28;20102;-69
2023/09/12 00:50:16;;;;;;;13.55;6.32;;;18.60;99.90;;;;;;5072183;28;20044;-69
2023/09/12 00:52:43;;;;;;;12.00;4.60;;;18.50;99.90;;;;;;5054194;28;20040;-70
2023/09/12 00:55:09;;;;;;;13.25;5.85;;;18.50;99.90;;;;;;5053632;28;20082;-70
2023/09/12 00:57:35;;;;;;;13.55;6.30;;;18.50;99.90;;;;;;5054189;28;20055;-70
2023/09/12 01:00:12;;;;;;;12.10;5.78;;;18.40;99.90;;;;;;5001246;28;20046;-70
2023/09/12 01:02:42;;;;;;;12.77;5.75;;;18.40;99.90;;;;;;4969773;28;20054;-70
2023/09/12 01:05:09;;;;;;;10.40;4.82;;;18.40;99.90;;;;;;5037020;28;20042;-69
2023/09/12 01:07:36;;;;;;;10.15;4.95;;;18.40;99.90;;;;;;5037205;28;20042;-70
2023/09/12 01:10:03;;;;;;;13.48;5.95;;;18.30;99.90;;;;;;5036627;28;20074;-69
2023/09/12 01:12:29;;;;;;;10.95;5.57;;;18.20;99.90;;;;;;5037108;28;20066;-70
2023/09/12 01:14:55;;;;;;;14.70;3.50;;;18.20;99.90;;;;;;5036843;28;20055;-70
2023/09/12 01:17:22;;;;;;;10.38;2.80;;;18.10;99.90;;;;;;4969368;28;20047;-69
2023/09/12 01:19:48;;;;;;;8.45;2.97;;;18.00;99.90;;;;;;5054016;28;20470;-70
2023/09/12 01:23:01;;;;;;;6.20;2.95;;;18.00;99.90;;;;;;5033711;28;20048;-70
2023/09/12 01:25:42;;;;;;;6.75;2.92;;;18.00;99.90;;;;;;5026324;28;20050;-70
2023/09/12 01:28:10;;;;;;;5.35;2.55;;;17.90;99.90;;;;;;5036964;28;20441;-70
2023/09/12 01:30:38;;;;;;;8.18;4.03;;;17.90;99.90;;;;;;5035873;28;20706;-70
2023/09/12 01:33:04;;;;;;;5.70;3.05;;;17.90;99.90;;;;;;5020026;28;20130;-70
2023/09/12 01:35:30;;;;;;;12.90;2.50;;;17.80;99.90;;;;;;5036464;28;20487;-69
2023/09/12 01:37:56;;;;;;;4.95;1.90;;;17.90;99.90;;;;;;5035830;28;20046;-69
2023/09/12 01:40:42;;;;;;;10.70;3.13;;;17.80;99.90;;;;;;5036655;28;20096;-69
2023/09/12 01:43:08;;;;;;;15.15;3.25;;;17.80;99.90;;;;;;4969830;28;20569;-69
2023/09/12 01:45:36;;;;;;;6.80;3.05;;;17.70;99.90;;;;;;5035354;28;20043;-69
2023/09/12 01:48:05;;;;;;;17.05;3.45;;;17.60;99.90;;;;;;5036230;28;20043;-70
2023/09/12 01:50:32;;;;;;;18.38;2.72;;;17.60;99.90;;;;;;4969331;28;20042;-69
2023/09/12 01:52:59;;;;;;;5.40;2.17;;;17.50;99.90;;;;;;4969593;28;20066;-69
2023/09/12 01:55:26;;;;;;;15.02;3.05;;;17.30;99.90;;;;;;4969640;28;20129;-70
2023/09/12 01:57:51;;;;;;;7.45;2.78;;;17.20;99.90;;;;;;5018869;28;20062;-69
2023/09/12 02:00:21;;;;;;;15.68;4.45;;;17.00;99.90;;;;;;4991384;28;20099;-69
2023/09/12 02:02:48;;;;;;;9.00;4.32;;;17.00;99.90;;;;;;4951166;28;20121;-69
2023/09/12 02:05:20;;;;;;;8.77;4.30;;;17.00;99.90;;;;;;4949658;28;20043;-69
2023/09/12 02:07:47;;;;;;;7.15;3.53;;;17.00;99.90;;;;;;5016145;28;20047;-69
2023/09/12 02:10:13;;;;;;;11.35;4.90;;;16.90;99.90;;;;;;5016064;28;20047;-70
2023/09/12 02:12:39;;;;;;;7.95;3.78;;;16.90;99.90;;;;;;4970192;28;20042;-70
2023/09/12 02:15:06;;;;;;;11.68;4.35;;;16.90;99.90;;;;;;5055925;28;20042;-70
2023/09/12 02:17:32;;;;;;;9.55;4.03;;;16.90;99.90;;;;;;4988662;28;20046;-69
2023/09/12 02:19:57;;;;;;;11.80;4.78;;;16.90;99.90;;;;;;5037542;28;20069;-70
2023/09/12 02:22:23;;;;;;;7.85;3.22;;;16.90;99.90;;;;;;5035834;28;20047;-69
2023/09/12 02:24:50;;;;;;;5.22;3.28;;;16.90;99.90;;;;;;5035851;28;20054;-69
2023/09/12 02:27:16;;;;;;;9.00;3.47;;;17.00;99.90;;;;;;5035152;28;20047;-69
2023/09/12 02:29:42;;;;;;;8.68;3.58;;;17.00;99.90;;;;;;5035279;28;20105;-68
2023/09/12 02:32:08;;;;;;;7.72;4.07;;;17.00;99.90;;;;;;4968638;28;20053;-70
2023/09/12 02:34:34;;;;;;;8.38;4.57;;;17.00;99.90;;;;;;5034746;28;20078;-69
2023/09/12 02:37:00;;;;;;;13.25;4.85;;;17.00;99.90;;;;;;5035650;28;20085;-70
2023/09/12 02:39:26;;;;;;;9.95;4.25;;;17.00;99.90;;;;;;4968210;28;20042;-70
2023/09/12 02:41:52;;;;;;;10.82;4.88;;;17.10;99.90;;;;;;4983691;28;20048;-69
2023/09/12 02:44:18;;;;;;;17.23;5.80;;;17.20;99.90;;;;;;5052495;28;20051;-72
2023/09/12 02:46:43;;;;;;;12.02;5.47;;;17.20;99.90;;;;;;5034718;28;20046;-73
2023/09/12 02:49:09;;;;;;;10.18;6.03;;;17.30;99.90;;;;;;5035228;28;20117;-72
2023/09/12 02:51:39;;;;;;;15.45;6.07;;;17.30;99.90;;;;;;4968612;28;20050;-72
2023/09/12 02:54:05;;;;;;;;;;;17.40;99.90;;;;;;5035378;28;20039;-72
2023/09/12 02:56:30;;;;;;;15.77;6.28;;;17.40;99.90;;;;;;4968572;28;20278;-72
2023/09/12 02:58:57;;;;;;;20.13;7.38;;;17.50;99.90;;;;;;5034322;28;20483;-72
2023/09/12 03:01:27;;;;;;;18.55;8.25;;;17.50;99.90;;;;;;5027185;28;20075;-72
2023/09/12 03:03:53;;;;;;;18.80;8.45;;;17.60;99.90;;;;;;4949243;29;20055;-72
2023/09/12 03:06:19;;;;;;;19.05;8.43;;;17.60;99.90;;;;;;4949207;29;20035;-72
2023/09/12 03:08:45;;;;;;;24.08;8.13;;;17.70;99.90;;;;;;5033428;28;20042;-72
2023/09/12 03:11:11;;;;;;;22.40;8.65;;;17.70;99.90;;;;;;5003659;28;20047;-72
2023/09/12 03:13:39;;;;;;;23.20;8.15;;;17.70;99.90;;;;;;5069604;28;20059;-72
2023/09/12 03:16:05;;;;;;;22.80;8.55;;;17.70;99.90;;;;;;5034276;28;20054;-72
2023/09/12 03:18:30;;;;;;;18.80;7.18;;;17.70;99.90;;;;;;5034855;28;20038;-72
2023/09/12 03:20:56;;;;;;;23.40;8.75;;;17.70;99.90;;;;;;5034718;28;20038;-72
2023/09/12 03:23:22;;;;;;;22.10;8.38;;;17.60;99.90;;;;;;5034571;28;20038;-73
2023/09/12 03:25:48;;;;;;;18.13;7.63;;;17.60;99.90;;;;;;5035127;28;20060;-72
2023/09/12 03:28:13;;;;;;;22.08;8.02;;;17.60;99.90;;;;;;5034367;28;20102;-72
2023/09/12 03:30:39;;;;;;;25.30;9.15;;;17.60;99.90;;;;;;5034675;28;20134;-72
2023/09/12 03:33:05;;;;;;;21.67;7.22;;;17.60;99.90;;;;;;5034991;28;20051;-72
2023/09/12 03:35:33;;;;;;;18.80;8.55;;;17.50;99.90;;;;;;5033974;28;20479;-71
2023/09/12 03:37:59;;;;;;;20.83;8.13;;;17.50;99.90;;;;;;4967997;28;20074;-71
2023/09/12 03:40:24;;;;;;;23.55;8.40;;;17.40;99.90;;;;;;5034899;28;20075;-72
2023/09/12 03:42:50;;;;;;;21.45;8.98;;;17.30;99.90;;;;;;5050706;28;20071;-72
2023/09/12 03:45:16;;;;;;;20.83;8.77;;;17.30;99.90;;;;;;5034883;28;20039;-72
2023/09/12 03:47:46;;;;;;;23.20;8.57;;;17.30;99.90;;;;;;5034648;28;20557;-72
2023/09/12 03:50:13;;;;;;;24.75;10.55;;;17.30;99.90;;;;;;4967753;28;20079;-72
2023/09/12 03:52:38;;;;;;;23.65;8.35;;;17.30;99.90;;;;;;4967833;28;20051;-72
2023/09/12 03:55:04;;;;;;;26.15;10.35;;;17.30;99.90;;;;;;5034688;28;20054;-72
2023/09/12 03:57:31;;;;;;;17.80;7.30;;;17.30;99.90;;;;;;5015928;28;20047;-72
2023/09/12 03:59:57;;;;;;;21.23;8.15;;;17.30;99.90;;;;;;4992699;28;20050;-72
2023/09/12 04:02:23;;;;;;;19.10;8.13;;;17.20;99.90;;;;;;4967707;28;20614;-72
2023/09/12 04:04:49;;;;;;;22.17;8.50;;;17.20;99.90;;;;;;4975145;28;20038;-71
2023/09/12 04:07:15;;;;;;;19.80;7.68;;;17.20;99.90;;;;;;5054126;28;20061;-72
2023/09/12 04:09:40;;;;;;;21.92;8.75;;;17.10;99.90;;;;;;5054208;28;20049;-72
2023/09/12 04:12:06;;;;;;;21.83;9.27;;;17.10;99.90;;;;;;4977013;28;20092;-72
2023/09/12 04:14:32;;;;;;;24.13;8.82;;;17.10;99.90;;;;;;5051329;28;20040;-72
2023/09/12 04:16:58;;;;;;;23.00;8.25;;;17.10;99.90;;;;;;5069022;28;20055;-72
2023/09/12 04:19:25;;;;;;;23.20;9.45;;;17.10;99.90;;;;;;5033729;28;20046;-72
2023/09/12 04:21:51;;;;;;;26.67;9.30;;;17.10;99.90;;;;;;4967541;28;20082;-71
2023/09/12 04:24:17;;;;;;;23.63;7.53;;;17.10;99.90;;;;;;5033794;28;20204;-72
2023/09/12 04:26:44;;;;;;;19.10;7.60;;;17.10;99.90;;;;;;5037356;28;20049;-72
2023/09/12 04:29:10;;;;;;;19.27;7.25;;;17.00;99.90;;;;;;5037597;28;20043;-71
2023/09/12 04:31:37;;;;;;;24.60;6.60;;;17.00;99.90;;;;;;5050482;28;20063;-72
2023/09/12 04:34:03;;;;;;;24.08;7.63;;;17.00;99.90;;;;;;5052540;28;20106;-72
2023/09/12 04:36:29;;;;;;;18.48;7.65;;;17.00;99.90;;;;;;5051191;28;20053;-72
2023/09/12 04:38:55;;;;;;;18.55;7.50;;;16.90;99.90;;;;;;5050558;28;20107;-71
2023/09/12 04:41:20;;;;;;;19.65;7.70;;;16.90;99.90;;;;;;5056951;28;20028;-72
2023/09/12 04:43:46;;;;;;;20.63;8.45;;;16.80;99.90;;;;;;5052345;28;20119;-72
2023/09/12 04:46:12;;;;;;;15.00;7.28;;;16.80;99.90;;;;;;5051630;28;20048;-71
2023/09/12 04:48:39;;;;;;;16.88;6.68;;;16.80;99.90;;;;;;5051032;28;20393;-72
2023/09/12 04:51:05;;;;;;;16.55;6.80;;;16.70;99.90;;;;;;5050964;28;20087;-71
2023/09/12 04:53:34;;;;;;;19.02;8.00;;;16.70;99.90;;;;;;5034521;28;20073;-71
2023/09/12 04:56:01;;;;;;;20.23;5.07;;;16.70;99.90;;;;;;5032407;28;20050;-71
2023/09/12 04:58:27;;;;;;;16.95;5.97;;;16.70;99.90;;;;;;5047677;28;20533;-71
2023/09/12 05:00:54;;;;;;;25.10;4.78;;;16.70;99.90;;;;;;5049565;28;20068;-71
2023/09/12 05:03:20;;;;;;;17.08;6.22;;;16.70;99.90;;;;;;5051097;28;20052;-71
2023/09/12 05:05:47;;;;;;;24.13;5.25;;;16.60;99.90;;;;;;5050854;28;20576;-71
2023/09/12 05:08:13;;;;;;;14.90;5.45;;;16.60;99.90;;;;;;5050185;28;20052;-71
2023/09/12 05:10:39;;;;;;;29.88;5.88;;;16.60;99.90;;;;;;5050812;28;20512;-71
2023/09/12 05:13:05;;;;;;;11.75;5.55;;;16.50;99.90;;;;;;5052094;28;20508;-71
2023/09/12 05:15:31;;;;;;;19.35;7.25;;;16.50;99.90;;;;;;5049674;28;20044;-71
2023/09/12 05:17:57;;;;;;;12.57;4.78;;;16.50;99.90;;;;;;5051711;28;20052;-71
2023/09/12 05:20:23;;;;;;;18.08;5.97;;;16.40;99.90;;;;;;5050213;28;20037;-71
2023/09/12 05:22:48;;;;;;;17.30;5.32;;;16.40;99.90;;;;;;5050150;28;20067;-71
2023/09/12 05:25:14;;;;;;;22.23;6.15;;;16.40;99.90;;;;;;5051736;28;20040;-71
2023/09/12 05:27:40;;;;;;;19.77;7.15;;;16.40;99.90;;;;;;5033131;28;20465;-71
2023/09/12 05:30:06;;;;;;;24.35;7.13;;;16.50;99.90;;;;;;5037261;28;20042;-70
2023/09/12 05:32:32;;;;;;;19.45;6.47;;;16.50;99.90;;;;;;5036595;28;20051;-70
2023/09/12 05:34:58;;;;;;;22.15;7.93;;;16.50;99.90;;;;;;4969062;28;20061;-71
2023/09/12 05:37:23;;;;;;;19.38;8.48;;;16.60;99.90;;;;;;5035454;28;20244;-70
2023/09/12 05:39:49;;;;;;;20.38;8.27;;;16.60;99.90;;;;;;5053449;28;20036;-70
2023/09/12 05:42:20;;;;;;;20.85;7.55;;;16.80;99.90;;;;;;5014854;28;20724;-70
2023/09/12 05:44:47;;;;;;;17.85;7.68;;;16.90;99.90;;;;;;4989028;28;20513;-69
2023/09/12 05:47:13;;;;;;;27.33;8.70;;;17.00;99.90;;;;;;5037742;28;20564;-70
2023/09/12 05:49:39;;;;;;;25.27;8.57;;;17.00;99.90;;;;;;5021021;28;20047;-70
2023/09/12 05:52:05;;;;;;;26.17;9.27;;;17.10;99.90;;;;;;5016694;28;20101;-71
2023/09/12 05:54:33;;;;;;;28.30;9.40;;;17.20;99.90;;;;;;5016591;28;20131;-70
2023/09/12 05:56:59;;;;;;;16.35;7.20;;;17.30;99.90;;;;;;4949495;28;20089;-70
2023/09/12 05:59:25;;;;;;;22.73;9.70;;;17.30;99.90;;;;;;5007757;28;20043;-71
2023/09/12 06:01:52;;;;;;;23.45;9.13;;;17.40;99.90;;;;;;5013676;28;20058;-71
2023/09/12 06:04:18;;;;;;;28.33;9.63;;;17.40;99.90;;;;;;5018864;28;20068;-71
2023/09/12 06:06:43;;;;;;;23.17;8.85;;;17.40;99.90;;;;;;4969279;28;20051;-71
2023/09/12 06:09:09;;;;;;;26.05;9.57;;;17.50;99.90;;;;;;4969241;28;20100;-71
2023/09/12 06:11:35;;;;;;;27.30;9.35;;;17.50;99.90;;;;;;4968842;28;20111;-71
2023/09/12 06:14:01;;;;;;;19.40;8.77;;;17.60;99.90;;;;;;5035890;28;20043;-71
2023/09/12 06:16:27;;;;;;;27.85;11.18;;;17.60;99.90;;;;;;5051823;28;20040;-71
2023/09/12 06:18:53;;;;;;;31.35;11.95;;;17.60;99.90;;;;;;5036092;28;20141;-72
2023/09/12 06:21:21;;;;;;;25.00;10.15;;;17.70;99.90;;;;;;5055850;28;20053;-73
2023/09/12 06:24:13;;;;;;;24.20;10.52;;;17.80;99.90;;;;;;5054973;28;20046;-72
2023/09/12 06:26:40;;;;;;;26.50;10.85;;;17.80;99.90;;;;;;5055574;28;20088;-72
2023/09/12 06:29:06;;;;;;;25.83;11.85;;;17.80;99.90;;;;;;5055197;28;20049;-72
2023/09/12 06:31:32;;;;;;;29.80;10.68;;;17.80;99.90;;;;;;5054380;28;20050;-72
2023/09/12 06:33:57;;;;;;;31.83;11.30;;;17.90;99.90;;;;;;4988091;28;20061;-71
2023/09/12 06:36:25;;;;;;;29.05;11.02;;;17.90;99.90;;;;;;5055386;28;20051;-72
2023/09/12 06:38:51;;;;;;;41.38;13.48;;;18.00;99.90;;;;;;5062403;28;20043;-72
2023/09/12 06:41:20;;;;;;;44.03;12.75;;;18.00;99.90;;;;;;5032402;28;20082;-72
2023/09/12 06:43:47;;;;;;;40.38;13.05;;;18.10;99.90;;;;;;5035181;28;20074;-72
2023/09/12 06:46:13;;;;;;;46.17;15.50;;;18.10;99.90;;;;;;5016484;28;20050;-71
2023/09/12 06:48:39;;;;;;;40.22;14.75;;;18.20;99.90;;;;;;5031563;28;20097;-72
2023/09/12 06:51:06;;;;;;;41.47;14.85;;;18.20;99.90;;;;;;5014280;28;20051;-72
2023/09/12 06:53:32;;;;;;;50.63;17.13;;;18.30;99.90;;;;;;4948089;29;20051;-71
2023/09/12 06:55:58;;;;;;;52.78;17.20;;;18.40;99.90;;;;;;5029976;28;20182;-72
2023/09/12 06:58:25;;;;;;;50.67;17.88;;;18.40;99.90;;;;;;4967546;28;20051;-72
2023/09/12 07:00:51;;;;;;;56.75;17.90;;;18.50;99.90;;;;;;4982720;28;20046;-70
2023/09/12 07:03:17;;;;;;;66.35;19.38;;;18.50;99.90;;;;;;4968465;28;20033;-73
2023/09/12 07:05:43;;;;;;;81.50;24.98;;;18.60;99.90;;;;;;5003079;28;20455;-73
2023/09/12 07:08:10;;;;;;;90.72;28.25;;;18.60;99.90;;;;;;4968362;28;20145;-73
2023/09/12 07:10:36;;;;;;;91.63;30.63;;;18.70;99.90;;;;;;4978045;28;20039;-73
2023/09/12 07:13:02;;;;;;;84.95;31.52;;;18.70;99.90;;;;;;5051290;28;20044;-73
2023/09/12 07:15:28;;;;;;;95.40;33.10;;;18.60;99.90;;;;;;5051393;28;20481;-72
2023/09/12 07:17:56;;;;;;;98.57;32.83;;;18.60;99.90;;;;;;5051672;28;20040;-74
2023/09/12 07:20:22;;;;;;;92.28;34.28;;;18.60;99.90;;;;;;5034213;28;20537;-72
2023/09/12 07:22:47;;;;;;;96.85;34.05;;;18.60;99.90;;;;;;5052913;28;20074;-72
2023/09/12 07:25:14;;;;;;;68.43;27.73;;;18.70;99.90;;;;;;5054318;28;20044;-73
2023/09/12 07:27:40;;;;;;;60.47;21.77;;;18.70;99.90;;;;;;5054174;28;20034;-71
2023/09/12 07:30:06;;;;;;;55.53;21.45;;;18.70;99.90;;;;;;5054658;28;20401;-72
2023/09/12 07:32:32;;;;;;;52.42;21.98;;;18.70;99.90;;;;;;5054811;28;20054;-74
2023/09/12 07:34:59;;;;;;;57.47;22.50;;;18.70;99.90;;;;;;4986905;28;20046;-73
2023/09/12 07:37:24;;;;;;;57.60;21.88;;;18.70;99.90;;;;;;4987375;28;20126;-73
2023/09/12 07:39:50;;;;;;;44.38;20.02;;;18.70;99.90;;;;;;4968095;28;20118;-73
2023/09/12 07:42:16;;;;;;;41.08;19.67;;;18.70;99.90;;;;;;5018204;28;20048;-73
2023/09/12 07:44:42;;;;;;;55.30;17.30;;;18.70;99.90;;;;;;4948963;29;20051;-73
2023/09/12 07:47:08;;;;;;;35.03;16.17;;;18.70;99.90;;;;;;5014625;28;20039;-73
2023/09/12 07:49:33;;;;;;;39.35;16.63;;;18.70;99.90;;;;;;5014140;28;20036;-74
2023/09/12 07:51:59;;;;;;;37.28;16.38;;;18.80;99.90;;;;;;5014849;28;20039;-74
2023/09/12 07:54:25;;;;;;;37.53;15.55;;;18.80;99.90;;;;;;5038311;28;20050;-74
2023/09/12 07:56:51;;;;;;;33.60;14.73;;;18.80;99.90;;;;;;5051121;28;20040;-73
2023/09/12 07:59:16;;;;;;;34.90;13.82;;;19.00;99.90;;;;;;5024011;28;20177;-74
2023/09/12 08:01:42;;;;;;;30.33;13.75;;;19.10;99.90;;;;;;4970116;28;20133;-74
2023/09/12 08:04:08;;;;;;;35.75;14.65;;;19.20;99.90;;;;;;4951688;28;20039;-74
2023/09/12 08:06:34;;;;;;;36.83;14.75;;;19.40;99.90;;;;;;5018222;28;20047;-74
2023/09/12 08:09:00;;;;;;;46.42;16.65;;;19.60;99.90;;;;;;4951445;28;20771;-74
2023/09/12 08:11:27;;;;;;;40.20;16.58;;;19.80;99.90;;;;;;5005286;28;20488;-73
2023/09/12 08:13:52;;;;;;;39.65;17.88;;;20.10;99.90;;;;;;5054765;28;20141;-73
2023/09/12 08:16:18;;;;;;;47.63;18.27;;;20.60;99.90;;;;;;5072074;28;20076;-73
2023/09/12 08:18:44;;;;;;;41.92;18.05;;;21.00;99.90;;;;;;5032155;28;20051;-73
2023/09/12 08:21:12;;;;;;;34.85;16.38;;;21.30;99.90;;;;;;4951732;28;20039;-72
2023/09/12 08:23:38;;;;;;;37.78;16.42;;;21.50;99.90;;;;;;4964056;28;20038;-73
2023/09/12 08:26:03;;;;;;;41.75;17.65;;;21.50;99.90;;;;;;4970732;28;20031;-73
2023/09/12 08:28:29;;;;;;;54.08;21.75;;;21.50;99.90;;;;;;4970638;28;20034;-74
2023/09/12 08:30:55;;;;;;;47.90;21.65;;;21.50;99.90;;;;;;5063112;28;20041;-73
2023/09/12 08:33:21;;;;;;;52.30;21.25;;;21.40;99.90;;;;;;5055833;28;20095;-74
2023/09/12 08:35:46;;;;;;;49.85;21.77;;;21.30;99.90;;;;;;5051096;28;20060;-73
2023/09/12 08:38:12;;;;;;;45.50;20.80;;;21.30;99.90;;;;;;5050415;28;20045;-73
2023/09/12 08:40:38;;;;;;;39.08;18.70;;;21.20;99.90;;;;;;5052309;28;20071;-73
2023/09/12 08:43:04;;;;;;;45.95;20.08;;;21.10;99.90;;;;;;5050683;28;20076;-73
2023/09/12 08:45:30;;;;;;;42.28;18.45;;;21.10;99.90;;;;;;5050586;28;20098;-73
2023/09/12 08:48:00;;;;;;;43.83;18.38;;;21.10;99.90;;;;;;5052540;28;20033;-73
2023/09/12 08:50:30;;;;;;;41.60;17.60;;;21.10;99.90;;;;;;5047979;28;20409;-74
2023/09/12 08:52:56;;;;;;;36.22;16.77;;;21.20;99.90;;;;;;5033356;28;20088;-72
2023/09/12 08:55:22;;;;;;;38.38;17.02;;;21.70;99.90;;;;;;5065265;28;20072;-73
2023/09/12 08:57:50;;;;;;;26.67;13.90;;;22.20;99.90;;;;;;5053042;28;20037;-73
2023/09/12 09:00:16;;;;;;;29.13;14.50;;;22.80;99.90;;;;;;5051523;28;20045;-73
2023/09/12 09:02:43;;;;;;;36.85;15.73;;;23.10;99.90;;;;;;5033963;28;20037;-73
2023/09/12 09:05:11;;;;;;;33.97;14.15;;;23.20;99.90;;;;;;5050006;28;20513;-72
2023/09/12 09:07:38;;;;;;;30.27;15.85;;;23.40;99.90;;;;;;5051425;28;20033;-73
2023/09/12 09:10:08;;;;;;;35.42;15.35;;;23.50;99.90;;;;;;5051965;28;20044;-72
2023/09/12 09:12:40;;;;;;;34.72;14.45;;;23.50;99.90;;;;;;5050647;28;20041;-73
2023/09/12 09:15:22;;;;;;;28.50;11.60;;;23.50;99.90;;;;;;5043278;28;20049;-73
2023/09/12 09:17:50;;;;;;;24.13;9.82;;;23.70;99.90;;;;;;5030821;28;20381;-73
2023/09/12 09:20:27;;;;;;;19.25;8.60;;;24.10;99.90;;;;;;5031045;28;20152;-73
2023/09/12 09:23:08;;;;;;;21.80;9.63;;;24.20;99.90;;;;;;5031729;28;20053;-72
2023/09/12 09:25:37;;;;;;;17.50;8.57;;;24.00;99.90;;;;;;5046252;28;20486;-72
2023/09/12 09:28:04;;;;;;;21.35;9.13;;;23.70;99.90;;;;;;5050415;28;20068;-72
2023/09/12 09:30:41;;;;;;;16.88;8.07;;;23.40;99.90;;;;;;5049835;28;20060;-71
2023/09/12 09:33:08;;;;;;;15.90;7.20;;;23.10;99.90;;;;;;5050970;28;20401;-72
2023/09/12 09:35:34;;;;;;;15.93;7.90;;;23.00;99.90;;;;;;5048722;28;20064;-71
2023/09/12 09:38:00;;;;;;;19.35;7.97;;;22.90;99.90;;;;;;5049908;28;20049;-71
2023/09/12 09:40:26;;;;;;;16.52;7.25;;;22.90;99.90;;;;;;5050699;28;20052;-71
2023/09/12 09:42:59;;;;;;;13.25;6.85;;;23.00;99.90;;;;;;5051343;28;20045;-72
2023/09/12 09:45:24;;;;;;;15.40;7.05;;;23.30;99.90;;;;;;5050211;28;20033;-71
2023/09/12 09:47:51;;;;;;;12.57;6.38;;;23.50;99.90;;;;;;5049373;28;20041;-71
2023/09/12 09:50:17;;;;;;;17.77;7.47;;;23.50;99.90;;;;;;5050266;28;20041;-71
2023/09/12 09:52:44;;;;;;;17.02;7.85;;;23.60;99.90;;;;;;5031394;28;20037;-72
2023/09/12 09:55:15;;;;;;;15.10;7.25;;;23.90;99.90;;;;;;5029298;28;20060;-72
2023/09/12 09:57:41;;;;;;;15.60;7.30;;;24.10;99.90;;;;;;5030125;28;20045;-72
2023/09/12 10:00:08;;;;;;;15.18;5.97;;;24.40;99.90;;;;;;5043668;28;20392;-70
2023/09/12 10:02:38;;;;;;;15.27;6.13;;;24.60;99.90;;;;;;5049107;28;20405;-69
2023/09/12 10:05:05;;;;;;;20.15;6.95;;;24.80;99.90;;;;;;5049489;28;20037;-69
2023/09/12 10:07:33;;;;;;;15.25;6.63;;;24.90;99.90;;;;;;5048582;28;20037;-69
2023/09/12 10:10:03;;;;;;;12.25;6.28;;;25.10;99.90;;;;;;5049977;28;20072;-69
2023/09/12 10:12:31;;;;;;;14.82;7.05;;;25.60;99.90;;;;;;5053110;28;20052;-69
2023/09/12 10:15:01;;;;;;;15.27;6.97;;;26.40;99.90;;;;;;5052604;28;20033;-69
2023/09/12 10:17:35;;;;;;;16.20;6.45;;;26.70;99.90;;;;;;5069778;28;20087;-69
2023/09/12 10:20:10;;;;;;;12.15;6.18;;;26.70;99.90;;;;;;5070771;28;20044;-70
2023/09/12 10:22:58;;;;;;;13.18;6.55;;;27.10;99.90;;;;;;5067926;28;20614;-69
2023/09/12 10:25:24;;;;;;;10.65;4.28;;;27.30;99.90;;;;;;5069624;28;20048;-69
2023/09/12 10:27:52;;;;;;;10.98;5.10;;;26.80;99.90;;;;;;5057123;28;20041;-69
2023/09/12 10:30:20;;;;;;;10.45;5.15;;;26.30;99.90;;;;;;5048672;28;20122;-69
2023/09/12 10:32:46;;;;;;;10.40;5.25;;;25.90;99.90;;;;;;5032731;28;20056;-69
2023/09/12 10:35:12;;;;;;;13.13;4.70;;;25.80;99.90;;;;;;5050613;28;20045;-69
2023/09/12 10:37:43;;;;;;;8.48;4.53;;;26.00;99.90;;;;;;5048625;28;20128;-69
2023/09/12 10:40:10;;;;;;;10.38;4.68;;;26.00;99.90;;;;;;5032409;28;20041;-69
2023/09/12 10:42:36;;;;;;;12.32;5.57;;;25.90;99.90;;;;;;5048699;28;20124;-69
2023/09/12 10:45:05;;;;;;;10.20;5.20;;;26.00;99.90;;;;;;5050444;28;20094;-68
2023/09/12 10:47:31;;;;;;;11.32;4.97;;;25.90;99.90;;;;;;5049322;28;20037;-69
2023/09/12 10:50:01;;;;;;;7.35;4.22;;;25.70;99.90;;;;;;5049739;28;20029;-69
2023/09/12 10:52:27;;;;;;;8.38;3.85;;;25.50;99.90;;;;;;5032408;28;20106;-68
2023/09/12 10:54:53;;;;;;;7.95;4.47;;;25.20;99.90;;;;;;5048963;28;20060;-69
2023/09/12 10:57:19;;;;;;;9.35;3.78;;;25.10;99.90;;;;;;5048386;28;20045;-69
2023/09/12 11:00:04;;;;;;;11.20;4.68;;;25.00;99.90;;;;;;5048628;28;20049;-68
2023/09/12 11:02:32;;;;;;;10.40;4.18;;;25.00;99.90;;;;;;5047454;28;20493;-68
2023/09/12 11:04:59;;;;;;;9.30;5.20;;;25.10;99.90;;;;;;5031721;28;20094;-69
2023/09/12 11:07:32;;;;;;;8.07;3.85;;;25.20;99.90;;;;;;5046142;28;20042;-69
2023/09/12 11:10:19;;;;;;;9.65;4.50;;;25.60;99.90;;;;;;5047822;28;20049;-69
2023/09/12 11:12:47;;;;;;;8.82;4.50;;;26.20;99.90;;;;;;5047730;28;20060;-69
2023/09/12 11:15:15;;;;;;;8.25;3.58;;;26.50;99.90;;;;;;5049314;28;20044;-69
2023/09/12 11:17:45;;;;;;;10.13;4.43;;;26.80;99.90;;;;;;5047261;28;20131;-69
2023/09/12 11:20:12;;;;;;;10.38;3.75;;;27.20;99.90;;;;;;5048112;28;20033;-68
2023/09/12 11:22:46;;;;;;;9.45;4.00;;;27.20;99.90;;;;;;5047943;28;20574;-69
2023/09/12 11:25:23;;;;;;;8.13;4.45;;;27.10;99.90;;;;;;5045123;28;20145;-69
2023/09/12 11:27:52;;;;;;;8.30;4.05;;;27.00;99.90;;;;;;5047868;28;20374;-69
2023/09/12 11:30:19;;;;;;;5.68;2.55;;;26.90;99.90;;;;;;5037641;28;20068;-68
2023/09/12 11:32:47;;;;;;;7.35;2.35;;;26.70;99.90;;;;;;5047216;28;20041;-69
2023/09/12 11:35:14;;;;;;;;;;;26.40;99.90;;;;;;5049157;28;20089;-68
2023/09/12 11:37:48;;;;;;;4.90;2.53;;;26.20;99.90;;;;;;5053285;28;19924;-68
2023/09/12 11:40:13;;;;;;;4.75;2.63;;;26.20;99.90;;;;;;5052848;28;20048;-68
2023/09/12 11:42:40;;;;;;;6.97;3.15;;;26.40;99.90;;;;;;5053399;28;20041;-68
2023/09/12 11:45:10;;;;;;;8.40;3.28;;;26.50;99.90;;;;;;5052875;28;20048;-69
2023/09/12 11:47:43;;;;;;;6.72;2.50;;;26.80;99.90;;;;;;5050919;28;20095;-68
2023/09/12 11:50:39;;;;;;;5.93;3.35;;;26.90;99.90;;;;;;5051234;28;20049;-68
2023/09/12 11:53:08;;;;;;;7.35;3.25;;;26.60;99.90;;;;;;5050922;28;20771;-68
2023/09/12 11:55:45;;;;;;;6.53;3.22;;;26.30;99.90;;;;;;5051391;28;20083;-69
2023/09/12 11:58:12;;;;;;;8.68;4.38;;;26.00;99.90;;;;;;5066299;28;20506;-68
2023/09/12 12:00:52;;;;;;;11.60;3.92;;;25.70;99.90;;;;;;5053341;28;20090;-68
2023/09/12 12:03:20;;;;;;;9.00;4.10;;;25.50;99.90;;;;;;5048721;28;20053;-68
2023/09/12 12:05:47;;;;;;;9.82;4.55;;;25.30;99.90;;;;;;5052118;28;20037;-69
2023/09/12 12:08:15;;;;;;;7.88;3.80;;;25.30;99.90;;;;;;5050397;28;20230;-68
2023/09/12 12:10:41;;;;;;;8.50;3.73;;;25.30;99.90;;;;;;5050822;28;20040;-68
2023/09/12 12:13:12;;;;;;;7.80;3.70;;;25.30;99.90;;;;;;5047137;28;20049;-68
2023/09/12 12:15:38;;;;;;;8.18;4.50;;;25.30;99.90;;;;;;5031037;28;20042;-68
2023/09/12 12:18:04;;;;;;;8.65;3.42;;;25.60;99.90;;;;;;5032311;28;20137;-68
2023/09/12 12:20:30;;;;;;;7.70;4.13;;;25.60;99.90;;;;;;5051309;28;20045;-68
2023/09/12 12:22:56;;;;;;;10.90;4.13;;;25.50;99.90;;;;;;5051094;28;20075;-68
2023/09/12 12:25:22;;;;;;;9.38;5.20;;;25.30;99.90;;;;;;5034401;28;20044;-68
2023/09/12 12:27:49;;;;;;;9.10;3.92;;;25.20;99.90;;;;;;5051745;28;20083;-68
2023/09/12 12:30:15;;;;;;;12.25;5.18;;;25.20;99.90;;;;;;5050545;28;20191;-68
2023/09/12 12:32:51;;;;;;;9.90;4.75;;;25.10;99.90;;;;;;5050749;28;20127;-68
2023/09/12 12:35:22;;;;;;;8.23;3.33;;;25.00;99.90;;;;;;5050383;28;20047;-68
2023/09/12 12:37:54;;;;;;;7.93;3.67;;;24.90;99.90;;;;;;5051773;28;20078;-68
2023/09/12 12:40:20;;;;;;;7.68;3.95;;;24.70;99.90;;;;;;5055471;28;20060;-68